sensor_id;sensor_type;location;lat;lon;timestamp;P1;durP1;ratioP1;P2;durP2;ratioP2
6023;SDS011;3040;42.654;23.296;2023-05-10T00:01:16;4.73;;;4.53;;
6023;SDS011;3040;42.654;23.296;2023-05-10T00:03:42;5.03;;;4.77;;
6023;SDS011;3040;42.654;23.296;2023-05-10T00:06:09;5.17;;;4.97;;
6023;SDS011;3040;42.654;23.296;2023-05-10T00:08:38;5.57;;;5.37;;
6023;SDS011;3040;42.654;23.296;2023-05-10T00:11:05;5.87;;;5.67;;
6023;SDS011;3040;42.654;23.296;2023-05-10T00:13:32;5.23;;;5.03;;
6023;SDS011;3040;42.654;23.296;2023-05-10T00:15:59;6.40;;;6.17;;
6023;SDS011;3040;42.654;23.296;2023-05-10T00:18:26;5.80;;;5.50;;
6023;SDS011;3040;42.654;23.296;2023-05-10T00:20:52;5.43;;;5.17;;
6023;SDS011;3040;42.654;23.296;2023-05-10T00:23:20;5.87;;;5.67;;
6023;SDS011;3040;42.654;23.296;2023-05-10T00:25:49;5.70;;;5.40;;
6023;SDS011;3040;42.654;23.296;2023-05-10T00:28:15;5.73;;;5.53;;
6023;SDS011;3040;42.654;23.296;2023-05-10T00:30:42;5.97;;;5.77;;
6023;SDS011;3040;42.654;23.296;2023-05-10T00:33:09;5.50;;;5.30;;
6023;SDS011;3040;42.654;23.296;2023-05-10T00:35:36;5.20;;;5.00;;
6023;SDS011;3040;42.654;23.296;2023-05-10T00:38:03;5.70;;;5.50;;
6023;SDS011;3040;42.654;23.296;2023-05-10T00:40:30;5.33;;;5.13;;
6023;SDS011;3040;42.654;23.296;2023-05-10T00:42:58;5.37;;;5.17;;
6023;SDS011;3040;42.654;23.296;2023-05-10T00:45:26;5.90;;;5.70;;
6023;SDS011;3040;42.654;23.296;2023-05-10T00:47:53;5.93;;;5.67;;
6023;SDS011;3040;42.654;23.296;2023-05-10T00:50:21;6.27;;;5.97;;
6023;SDS011;3040;42.654;23.296;2023-05-10T00:52:48;5.80;;;5.57;;
6023;SDS011;3040;42.654;23.296;2023-05-10T00:55:15;6.00;;;5.80;;
6023;SDS011;3040;42.654;23.296;2023-05-10T00:57:42;6.70;;;6.37;;
6023;SDS011;3040;42.654;23.296;2023-05-10T01:00:11;6.30;;;6.00;;
6023;SDS011;3040;42.654;23.296;2023-05-10T01:02:43;6.57;;;6.30;;
6023;SDS011;3040;42.654;23.296;2023-05-10T01:05:10;6.20;;;6.00;;
6023;SDS011;3040;42.654;23.296;2023-05-10T01:07:37;6.37;;;6.07;;
6023;SDS011;3040;42.654;23.296;2023-05-10T01:10:05;7.03;;;6.73;;
6023;SDS011;3040;42.654;23.296;2023-05-10T01:12:33;6.70;;;6.40;;
6023;SDS011;3040;42.654;23.296;2023-05-10T01:15:02;6.80;;;6.43;;
6023;SDS011;3040;42.654;23.296;2023-05-10T01:17:31;7.27;;;6.73;;
6023;SDS011;3040;42.654;23.296;2023-05-10T01:19:59;9.43;;;6.43;;
6023;SDS011;3040;42.654;23.296;2023-05-10T01:22:33;6.83;;;6.43;;
6023;SDS011;3040;42.654;23.296;2023-05-10T01:25:23;6.87;;;6.53;;
6023;SDS011;3040;42.654;23.296;2023-05-10T01:28:07;6.40;;;6.10;;
6023;SDS011;3040;42.654;23.296;2023-05-10T01:33:40;6.00;;;5.80;;
6023;SDS011;3040;42.654;23.296;2023-05-10T01:36:15;5.87;;;5.57;;
6023;SDS011;3040;42.654;23.296;2023-05-10T01:38:52;5.60;;;5.30;;
6023;SDS011;3040;42.654;23.296;2023-05-10T01:41:25;4.97;;;4.77;;
6023;SDS011;3040;42.654;23.296;2023-05-10T01:44:04;5.30;;;5.10;;
6023;SDS011;3040;42.654;23.296;2023-05-10T01:46:43;5.23;;;5.03;;
6023;SDS011;3040;42.654;23.296;2023-05-10T01:49:19;5.10;;;4.90;;
6023;SDS011;3040;42.654;23.296;2023-05-10T01:51:50;5.13;;;4.93;;
6023;SDS011;3040;42.654;23.296;2023-05-10T01:54:20;4.47;;;4.33;;
6023;SDS011;3040;42.654;23.296;2023-05-10T01:56:50;5.13;;;4.83;;
6023;SDS011;3040;42.654;23.296;2023-05-10T01:59:22;5.23;;;5.03;;
6023;SDS011;3040;42.654;23.296;2023-05-10T02:01:54;4.30;;;4.20;;
6023;SDS011;3040;42.654;23.296;2023-05-10T02:04:26;4.73;;;4.53;;
6023;SDS011;3040;42.654;23.296;2023-05-10T02:06:54;5.47;;;5.17;;
6023;SDS011;3040;42.654;23.296;2023-05-10T02:09:22;4.80;;;4.60;;
6023;SDS011;3040;42.654;23.296;2023-05-10T02:11:51;4.57;;;4.40;;
6023;SDS011;3040;42.654;23.296;2023-05-10T02:14:20;4.53;;;4.33;;
6023;SDS011;3040;42.654;23.296;2023-05-10T02:16:49;4.30;;;4.20;;
6023;SDS011;3040;42.654;23.296;2023-05-10T02:19:19;5.00;;;4.80;;
6023;SDS011;3040;42.654;23.296;2023-05-10T02:21:48;4.73;;;4.47;;
6023;SDS011;3040;42.654;23.296;2023-05-10T02:24:17;4.87;;;4.67;;
6023;SDS011;3040;42.654;23.296;2023-05-10T02:26:45;4.70;;;4.50;;
6023;SDS011;3040;42.654;23.296;2023-05-10T02:29:16;3.90;;;3.80;;
6023;SDS011;3040;42.654;23.296;2023-05-10T02:31:44;4.80;;;4.60;;
6023;SDS011;3040;42.654;23.296;2023-05-10T02:34:12;5.13;;;4.83;;
6023;SDS011;3040;42.654;23.296;2023-05-10T02:36:40;4.40;;;4.20;;
6023;SDS011;3040;42.654;23.296;2023-05-10T02:39:09;5.80;;;4.60;;
6023;SDS011;3040;42.654;23.296;2023-05-10T02:41:38;5.00;;;4.63;;
6023;SDS011;3040;42.654;23.296;2023-05-10T02:44:07;5.17;;;4.77;;
6023;SDS011;3040;42.654;23.296;2023-05-10T02:46:35;5.00;;;4.70;;
6023;SDS011;3040;42.654;23.296;2023-05-10T02:49:03;4.13;;;4.03;;
6023;SDS011;3040;42.654;23.296;2023-05-10T02:51:31;5.10;;;4.90;;
6023;SDS011;3040;42.654;23.296;2023-05-10T02:54:01;5.07;;;4.57;;
6023;SDS011;3040;42.654;23.296;2023-05-10T02:56:36;5.60;;;5.07;;
6023;SDS011;3040;42.654;23.296;2023-05-10T02:59:08;5.50;;;5.10;;
6023;SDS011;3040;42.654;23.296;2023-05-10T03:01:36;5.87;;;5.50;;
6023;SDS011;3040;42.654;23.296;2023-05-10T03:04:03;5.10;;;4.90;;
6023;SDS011;3040;42.654;23.296;2023-05-10T03:06:30;5.70;;;5.30;;
6023;SDS011;3040;42.654;23.296;2023-05-10T03:08:57;6.00;;;5.50;;
6023;SDS011;3040;42.654;23.296;2023-05-10T03:11:28;5.33;;;5.03;;
6023;SDS011;3040;42.654;23.296;2023-05-10T03:14:13;5.47;;;5.00;;
6023;SDS011;3040;42.654;23.296;2023-05-10T03:16:51;7.20;;;5.50;;
6023;SDS011;3040;42.654;23.296;2023-05-10T03:19:24;5.57;;;5.27;;
6023;SDS011;3040;42.654;23.296;2023-05-10T03:21:57;8.33;;;5.70;;
6023;SDS011;3040;42.654;23.296;2023-05-10T03:24:30;5.37;;;5.17;;
6023;SDS011;3040;42.654;23.296;2023-05-10T03:27:00;5.43;;;5.13;;
6023;SDS011;3040;42.654;23.296;2023-05-10T03:29:30;5.83;;;5.53;;
6023;SDS011;3040;42.654;23.296;2023-05-10T03:31:58;6.13;;;5.80;;
6023;SDS011;3040;42.654;23.296;2023-05-10T03:34:25;5.80;;;5.43;;
6023;SDS011;3040;42.654;23.296;2023-05-10T03:36:52;5.90;;;5.47;;
6023;SDS011;3040;42.654;23.296;2023-05-10T03:39:19;5.83;;;5.63;;
6023;SDS011;3040;42.654;23.296;2023-05-10T03:41:46;5.10;;;4.90;;
6023;SDS011;3040;42.654;23.296;2023-05-10T03:44:13;6.20;;;5.87;;
6023;SDS011;3040;42.654;23.296;2023-05-10T03:46:41;5.77;;;5.47;;
6023;SDS011;3040;42.654;23.296;2023-05-10T03:49:08;5.00;;;4.77;;
6023;SDS011;3040;42.654;23.296;2023-05-10T03:51:35;5.37;;;5.07;;
6023;SDS011;3040;42.654;23.296;2023-05-10T03:54:02;5.60;;;5.40;;
6023;SDS011;3040;42.654;23.296;2023-05-10T03:56:28;5.07;;;4.73;;
6023;SDS011;3040;42.654;23.296;2023-05-10T03:58:56;5.03;;;4.80;;
6023;SDS011;3040;42.654;23.296;2023-05-10T04:01:22;5.03;;;4.73;;
6023;SDS011;3040;42.654;23.296;2023-05-10T04:03:50;4.87;;;4.50;;
6023;SDS011;3040;42.654;23.296;2023-05-10T04:06:17;4.60;;;4.30;;
6023;SDS011;3040;42.654;23.296;2023-05-10T04:08:44;4.50;;;4.20;;
6023;SDS011;3040;42.654;23.296;2023-05-10T04:11:11;4.70;;;4.40;;
6023;SDS011;3040;42.654;23.296;2023-05-10T04:13:39;5.80;;;5.27;;
6023;SDS011;3040;42.654;23.296;2023-05-10T04:16:06;7.50;;;5.10;;
6023;SDS011;3040;42.654;23.296;2023-05-10T04:18:32;4.77;;;4.47;;
6023;SDS011;3040;42.654;23.296;2023-05-10T04:21:01;5.60;;;5.20;;
6023;SDS011;3040;42.654;23.296;2023-05-10T04:23:27;5.13;;;4.90;;
6023;SDS011;3040;42.654;23.296;2023-05-10T04:25:58;5.27;;;4.97;;
6023;SDS011;3040;42.654;23.296;2023-05-10T04:28:26;4.67;;;4.37;;
6023;SDS011;3040;42.654;23.296;2023-05-10T04:30:53;5.93;;;5.70;;
6023;SDS011;3040;42.654;23.296;2023-05-10T04:33:27;6.10;;;5.80;;
6023;SDS011;3040;42.654;23.296;2023-05-10T04:35:54;6.17;;;5.87;;
6023;SDS011;3040;42.654;23.296;2023-05-10T04:38:22;5.30;;;5.03;;
6023;SDS011;3040;42.654;23.296;2023-05-10T04:40:49;5.93;;;5.63;;
6023;SDS011;3040;42.654;23.296;2023-05-10T04:43:16;5.63;;;5.43;;
6023;SDS011;3040;42.654;23.296;2023-05-10T04:45:43;5.67;;;5.33;;
6023;SDS011;3040;42.654;23.296;2023-05-10T04:48:10;5.37;;;5.17;;
6023;SDS011;3040;42.654;23.296;2023-05-10T04:50:36;5.10;;;4.90;;
6023;SDS011;3040;42.654;23.296;2023-05-10T04:53:03;5.57;;;5.17;;
6023;SDS011;3040;42.654;23.296;2023-05-10T04:55:32;5.00;;;4.73;;
6023;SDS011;3040;42.654;23.296;2023-05-10T04:57:58;5.47;;;5.17;;
6023;SDS011;3040;42.654;23.296;2023-05-10T05:00:25;5.57;;;5.13;;
6023;SDS011;3040;42.654;23.296;2023-05-10T05:02:52;4.87;;;4.67;;
6023;SDS011;3040;42.654;23.296;2023-05-10T05:05:19;5.53;;;4.40;;
6023;SDS011;3040;42.654;23.296;2023-05-10T05:07:46;6.30;;;5.53;;
6023;SDS011;3040;42.654;23.296;2023-05-10T05:10:13;4.77;;;4.57;;
6023;SDS011;3040;42.654;23.296;2023-05-10T05:12:41;5.43;;;5.13;;
6023;SDS011;3040;42.654;23.296;2023-05-10T05:15:08;5.40;;;5.20;;
6023;SDS011;3040;42.654;23.296;2023-05-10T05:17:36;5.90;;;5.70;;
6023;SDS011;3040;42.654;23.296;2023-05-10T05:20:03;6.10;;;5.80;;
6023;SDS011;3040;42.654;23.296;2023-05-10T05:22:30;6.23;;;5.97;;
6023;SDS011;3040;42.654;23.296;2023-05-10T05:24:57;5.70;;;5.40;;
6023;SDS011;3040;42.654;23.296;2023-05-10T05:27:24;5.90;;;5.40;;
6023;SDS011;3040;42.654;23.296;2023-05-10T05:29:54;6.13;;;5.83;;
6023;SDS011;3040;42.654;23.296;2023-05-10T05:32:21;6.50;;;6.10;;
6023;SDS011;3040;42.654;23.296;2023-05-10T05:34:48;7.40;;;6.80;;
6023;SDS011;3040;42.654;23.296;2023-05-10T05:37:15;6.60;;;6.30;;
6023;SDS011;3040;42.654;23.296;2023-05-10T05:39:43;6.60;;;6.20;;
6023;SDS011;3040;42.654;23.296;2023-05-10T05:42:10;6.30;;;5.90;;
6023;SDS011;3040;42.654;23.296;2023-05-10T05:44:38;6.30;;;6.00;;
6023;SDS011;3040;42.654;23.296;2023-05-10T05:47:06;6.77;;;6.27;;
6023;SDS011;3040;42.654;23.296;2023-05-10T05:49:33;7.70;;;7.17;;
6023;SDS011;3040;42.654;23.296;2023-05-10T05:52:00;7.73;;;7.27;;
6023;SDS011;3040;42.654;23.296;2023-05-10T05:54:28;8.33;;;7.23;;
6023;SDS011;3040;42.654;23.296;2023-05-10T05:56:56;8.00;;;7.30;;
6023;SDS011;3040;42.654;23.296;2023-05-10T05:59:23;7.93;;;7.40;;
6023;SDS011;3040;42.654;23.296;2023-05-10T06:01:50;7.50;;;7.10;;
6023;SDS011;3040;42.654;23.296;2023-05-10T06:04:18;7.53;;;7.23;;
6023;SDS011;3040;42.654;23.296;2023-05-10T06:06:45;8.97;;;8.47;;
6023;SDS011;3040;42.654;23.296;2023-05-10T06:09:12;8.13;;;7.57;;
6023;SDS011;3040;42.654;23.296;2023-05-10T06:11:39;7.67;;;7.33;;
6023;SDS011;3040;42.654;23.296;2023-05-10T06:14:06;8.70;;;8.10;;
6023;SDS011;3040;42.654;23.296;2023-05-10T06:16:33;9.77;;;9.07;;
6023;SDS011;3040;42.654;23.296;2023-05-10T06:19:01;8.40;;;7.90;;
6023;SDS011;3040;42.654;23.296;2023-05-10T06:21:29;8.33;;;7.67;;
6023;SDS011;3040;42.654;23.296;2023-05-10T06:23:56;8.60;;;8.20;;
6023;SDS011;3040;42.654;23.296;2023-05-10T06:26:23;8.70;;;8.10;;
6023;SDS011;3040;42.654;23.296;2023-05-10T06:28:50;8.93;;;8.43;;
6023;SDS011;3040;42.654;23.296;2023-05-10T06:31:17;9.27;;;8.77;;
6023;SDS011;3040;42.654;23.296;2023-05-10T06:33:43;9.87;;;9.07;;
6023;SDS011;3040;42.654;23.296;2023-05-10T06:36:10;9.77;;;8.70;;
6023;SDS011;3040;42.654;23.296;2023-05-10T06:38:39;10.13;;;9.53;;
6023;SDS011;3040;42.654;23.296;2023-05-10T06:41:06;10.23;;;9.50;;
6023;SDS011;3040;42.654;23.296;2023-05-10T06:43:33;8.63;;;7.97;;
6023;SDS011;3040;42.654;23.296;2023-05-10T06:46:00;8.67;;;8.13;;
6023;SDS011;3040;42.654;23.296;2023-05-10T06:48:27;9.37;;;8.47;;
6023;SDS011;3040;42.654;23.296;2023-05-10T06:50:53;9.37;;;8.83;;
6023;SDS011;3040;42.654;23.296;2023-05-10T06:53:20;8.57;;;7.83;;
6023;SDS011;3040;42.654;23.296;2023-05-10T06:55:50;9.20;;;7.20;;
6023;SDS011;3040;42.654;23.296;2023-05-10T06:58:17;8.60;;;7.73;;
6023;SDS011;3040;42.654;23.296;2023-05-10T07:00:43;8.93;;;8.27;;
6023;SDS011;3040;42.654;23.296;2023-05-10T07:03:12;11.17;;;8.57;;
6023;SDS011;3040;42.654;23.296;2023-05-10T07:05:38;8.90;;;8.03;;
6023;SDS011;3040;42.654;23.296;2023-05-10T07:08:05;8.30;;;7.70;;
6023;SDS011;3040;42.654;23.296;2023-05-10T07:10:32;8.53;;;8.03;;
6023;SDS011;3040;42.654;23.296;2023-05-10T07:13:01;7.53;;;7.07;;
6023;SDS011;3040;42.654;23.296;2023-05-10T07:15:27;10.73;;;8.07;;
6023;SDS011;3040;42.654;23.296;2023-05-10T07:17:54;8.33;;;7.83;;
6023;SDS011;3040;42.654;23.296;2023-05-10T07:20:21;10.07;;;9.47;;
6023;SDS011;3040;42.654;23.296;2023-05-10T07:22:48;9.17;;;8.57;;
6023;SDS011;3040;42.654;23.296;2023-05-10T07:25:15;8.57;;;8.07;;
6023;SDS011;3040;42.654;23.296;2023-05-10T07:27:42;7.50;;;7.00;;
6023;SDS011;3040;42.654;23.296;2023-05-10T07:30:11;8.70;;;8.00;;
6023;SDS011;3040;42.654;23.296;2023-05-10T07:32:39;8.87;;;8.17;;
6023;SDS011;3040;42.654;23.296;2023-05-10T07:35:07;8.00;;;7.50;;
6023;SDS011;3040;42.654;23.296;2023-05-10T07:37:34;8.83;;;8.33;;
6023;SDS011;3040;42.654;23.296;2023-05-10T07:40:01;8.53;;;8.10;;
6023;SDS011;3040;42.654;23.296;2023-05-10T07:42:28;9.13;;;8.70;;
6023;SDS011;3040;42.654;23.296;2023-05-10T07:44:55;10.20;;;9.70;;
6023;SDS011;3040;42.654;23.296;2023-05-10T07:47:24;10.33;;;9.57;;
6023;SDS011;3040;42.654;23.296;2023-05-10T07:49:51;9.27;;;8.57;;
6023;SDS011;3040;42.654;23.296;2023-05-10T07:52:17;10.03;;;9.37;;
6023;SDS011;3040;42.654;23.296;2023-05-10T07:54:44;9.03;;;8.40;;
6023;SDS011;3040;42.654;23.296;2023-05-10T07:57:11;9.50;;;8.80;;
6023;SDS011;3040;42.654;23.296;2023-05-10T07:59:39;9.47;;;8.87;;
6023;SDS011;3040;42.654;23.296;2023-05-10T08:02:07;10.00;;;9.30;;
6023;SDS011;3040;42.654;23.296;2023-05-10T08:04:35;9.63;;;8.83;;
6023;SDS011;3040;42.654;23.296;2023-05-10T08:07:02;9.90;;;9.13;;
6023;SDS011;3040;42.654;23.296;2023-05-10T08:09:29;9.77;;;9.17;;
6023;SDS011;3040;42.654;23.296;2023-05-10T08:11:56;10.47;;;9.87;;
6023;SDS011;3040;42.654;23.296;2023-05-10T08:14:24;10.57;;;9.77;;
6023;SDS011;3040;42.654;23.296;2023-05-10T08:16:51;10.07;;;9.20;;
6023;SDS011;3040;42.654;23.296;2023-05-10T08:19:18;9.20;;;8.60;;
6023;SDS011;3040;42.654;23.296;2023-05-10T08:21:47;9.17;;;8.67;;
6023;SDS011;3040;42.654;23.296;2023-05-10T08:24:14;8.43;;;8.03;;
6023;SDS011;3040;42.654;23.296;2023-05-10T08:26:41;9.63;;;8.83;;
6023;SDS011;3040;42.654;23.296;2023-05-10T08:29:09;9.30;;;8.67;;
6023;SDS011;3040;42.654;23.296;2023-05-10T08:31:36;9.53;;;8.53;;
6023;SDS011;3040;42.654;23.296;2023-05-10T08:34:02;8.67;;;8.07;;
6023;SDS011;3040;42.654;23.296;2023-05-10T08:36:29;8.67;;;8.17;;
6023;SDS011;3040;42.654;23.296;2023-05-10T08:38:58;9.40;;;8.53;;
6023;SDS011;3040;42.654;23.296;2023-05-10T08:41:25;9.73;;;8.97;;
6023;SDS011;3040;42.654;23.296;2023-05-10T08:43:53;8.37;;;7.87;;
6023;SDS011;3040;42.654;23.296;2023-05-10T08:46:21;8.00;;;7.50;;
6023;SDS011;3040;42.654;23.296;2023-05-10T08:48:49;9.60;;;8.70;;
6023;SDS011;3040;42.654;23.296;2023-05-10T08:51:17;9.37;;;8.77;;
6023;SDS011;3040;42.654;23.296;2023-05-10T08:53:46;8.87;;;8.47;;
6023;SDS011;3040;42.654;23.296;2023-05-10T08:56:15;9.63;;;9.13;;
6023;SDS011;3040;42.654;23.296;2023-05-10T08:58:43;9.33;;;8.60;;
6023;SDS011;3040;42.654;23.296;2023-05-10T09:01:10;10.03;;;9.10;;
6023;SDS011;3040;42.654;23.296;2023-05-10T09:03:38;9.27;;;8.87;;
6023;SDS011;3040;42.654;23.296;2023-05-10T09:06:06;9.13;;;8.73;;
6023;SDS011;3040;42.654;23.296;2023-05-10T09:08:33;10.23;;;9.50;;
6023;SDS011;3040;42.654;23.296;2023-05-10T09:11:02;10.50;;;10.00;;
6023;SDS011;3040;42.654;23.296;2023-05-10T09:13:32;10.67;;;10.07;;
6023;SDS011;3040;42.654;23.296;2023-05-10T09:16:00;10.43;;;9.43;;
6023;SDS011;3040;42.654;23.296;2023-05-10T09:18:28;9.53;;;8.77;;
6023;SDS011;3040;42.654;23.296;2023-05-10T09:20:56;9.73;;;9.03;;
6023;SDS011;3040;42.654;23.296;2023-05-10T09:23:22;10.23;;;9.43;;
6023;SDS011;3040;42.654;23.296;2023-05-10T09:26:01;9.70;;;9.23;;
6023;SDS011;3040;42.654;23.296;2023-05-10T09:28:32;10.13;;;9.30;;
6023;SDS011;3040;42.654;23.296;2023-05-10T09:30:59;9.90;;;9.33;;
6023;SDS011;3040;42.654;23.296;2023-05-10T09:33:26;9.80;;;9.30;;
6023;SDS011;3040;42.654;23.296;2023-05-10T09:35:53;9.70;;;8.80;;
6023;SDS011;3040;42.654;23.296;2023-05-10T09:38:20;9.13;;;8.47;;
6023;SDS011;3040;42.654;23.296;2023-05-10T09:40:50;9.77;;;9.27;;
6023;SDS011;3040;42.654;23.296;2023-05-10T09:43:21;9.67;;;9.17;;
6023;SDS011;3040;42.654;23.296;2023-05-10T09:45:49;9.40;;;8.87;;
6023;SDS011;3040;42.654;23.296;2023-05-10T09:48:16;9.50;;;9.00;;
6023;SDS011;3040;42.654;23.296;2023-05-10T09:50:42;9.13;;;8.63;;
6023;SDS011;3040;42.654;23.296;2023-05-10T09:53:09;9.63;;;8.80;;
6023;SDS011;3040;42.654;23.296;2023-05-10T09:55:41;10.40;;;9.73;;
6023;SDS011;3040;42.654;23.296;2023-05-10T09:58:10;9.40;;;8.70;;
6023;SDS011;3040;42.654;23.296;2023-05-10T10:00:37;8.57;;;8.17;;
6023;SDS011;3040;42.654;23.296;2023-05-10T10:03:11;9.40;;;8.90;;
6023;SDS011;3040;42.654;23.296;2023-05-10T10:05:40;9.30;;;8.70;;
6023;SDS011;3040;42.654;23.296;2023-05-10T10:08:07;10.37;;;9.53;;
6023;SDS011;3040;42.654;23.296;2023-05-10T10:10:34;9.93;;;9.00;;
6023;SDS011;3040;42.654;23.296;2023-05-10T10:13:01;10.47;;;9.70;;
6023;SDS011;3040;42.654;23.296;2023-05-10T10:15:29;9.40;;;8.90;;
6023;SDS011;3040;42.654;23.296;2023-05-10T10:17:57;9.33;;;8.60;;
6023;SDS011;3040;42.654;23.296;2023-05-10T10:20:26;8.90;;;8.43;;
6023;SDS011;3040;42.654;23.296;2023-05-10T10:22:53;9.40;;;8.90;;
6023;SDS011;3040;42.654;23.296;2023-05-10T10:25:20;9.60;;;8.50;;
6023;SDS011;3040;42.654;23.296;2023-05-10T10:27:49;9.00;;;8.50;;
6023;SDS011;3040;42.654;23.296;2023-05-10T10:30:31;8.10;;;7.60;;
6023;SDS011;3040;42.654;23.296;2023-05-10T10:33:25;8.43;;;8.03;;
6023;SDS011;3040;42.654;23.296;2023-05-10T10:36:06;9.00;;;8.27;;
6023;SDS011;3040;42.654;23.296;2023-05-10T10:38:37;7.57;;;7.27;;
6023;SDS011;3040;42.654;23.296;2023-05-10T10:41:28;8.33;;;7.67;;
6023;SDS011;3040;42.654;23.296;2023-05-10T10:46:58;7.57;;;7.07;;
6023;SDS011;3040;42.654;23.296;2023-05-10T10:49:27;7.70;;;6.90;;
6023;SDS011;3040;42.654;23.296;2023-05-10T10:52:20;8.47;;;7.93;;
6023;SDS011;3040;42.654;23.296;2023-05-10T10:54:52;12.57;;;7.13;;
6023;SDS011;3040;42.654;23.296;2023-05-10T10:57:23;9.23;;;7.70;;
6023;SDS011;3040;42.654;23.296;2023-05-10T10:59:51;7.73;;;7.03;;
6023;SDS011;3040;42.654;23.296;2023-05-10T11:02:44;7.53;;;6.60;;
6023;SDS011;3040;42.654;23.296;2023-05-10T11:05:23;16.87;;;7.80;;
6023;SDS011;3040;42.654;23.296;2023-05-10T11:08:13;7.93;;;7.07;;
6023;SDS011;3040;42.654;23.296;2023-05-10T11:10:52;6.97;;;6.40;;
6023;SDS011;3040;42.654;23.296;2023-05-10T11:13:28;7.27;;;6.67;;
6023;SDS011;3040;42.654;23.296;2023-05-10T11:15:56;7.13;;;6.80;;
6023;SDS011;3040;42.654;23.296;2023-05-10T11:18:24;7.57;;;7.03;;
6023;SDS011;3040;42.654;23.296;2023-05-10T11:20:52;7.27;;;6.70;;
6023;SDS011;3040;42.654;23.296;2023-05-10T11:23:28;7.33;;;6.90;;
6023;SDS011;3040;42.654;23.296;2023-05-10T11:25:56;7.93;;;7.40;;
6023;SDS011;3040;42.654;23.296;2023-05-10T11:28:23;7.93;;;7.20;;
6023;SDS011;3040;42.654;23.296;2023-05-10T11:30:52;6.97;;;6.67;;
6023;SDS011;3040;42.654;23.296;2023-05-10T11:33:19;7.80;;;7.30;;
6023;SDS011;3040;42.654;23.296;2023-05-10T11:35:46;7.00;;;6.60;;
6023;SDS011;3040;42.654;23.296;2023-05-10T11:38:13;7.00;;;6.60;;
6023;SDS011;3040;42.654;23.296;2023-05-10T11:40:42;6.60;;;6.13;;
6023;SDS011;3040;42.654;23.296;2023-05-10T11:43:09;7.97;;;7.37;;
6023;SDS011;3040;42.654;23.296;2023-05-10T11:45:40;7.70;;;7.20;;
6023;SDS011;3040;42.654;23.296;2023-05-10T11:48:08;7.47;;;6.97;;
6023;SDS011;3040;42.654;23.296;2023-05-10T11:50:34;7.07;;;6.77;;
6023;SDS011;3040;42.654;23.296;2023-05-10T11:53:01;7.63;;;7.13;;
6023;SDS011;3040;42.654;23.296;2023-05-10T11:55:28;7.33;;;7.03;;
6023;SDS011;3040;42.654;23.296;2023-05-10T11:58:00;8.50;;;7.80;;
6023;SDS011;3040;42.654;23.296;2023-05-10T12:00:28;8.60;;;8.07;;
6023;SDS011;3040;42.654;23.296;2023-05-10T12:02:56;9.07;;;8.30;;
6023;SDS011;3040;42.654;23.296;2023-05-10T12:05:23;8.93;;;8.43;;
6023;SDS011;3040;42.654;23.296;2023-05-10T12:07:51;8.23;;;7.50;;
6023;SDS011;3040;42.654;23.296;2023-05-10T12:10:18;9.60;;;8.80;;
6023;SDS011;3040;42.654;23.296;2023-05-10T12:12:52;8.60;;;8.00;;
6023;SDS011;3040;42.654;23.296;2023-05-10T12:15:20;8.43;;;7.93;;
6023;SDS011;3040;42.654;23.296;2023-05-10T12:17:49;9.03;;;8.53;;
6023;SDS011;3040;42.654;23.296;2023-05-10T12:20:19;9.17;;;8.47;;
6023;SDS011;3040;42.654;23.296;2023-05-10T12:22:51;8.40;;;7.67;;
6023;SDS011;3040;42.654;23.296;2023-05-10T12:25:20;8.17;;;7.57;;
6023;SDS011;3040;42.654;23.296;2023-05-10T12:27:49;8.73;;;7.97;;
6023;SDS011;3040;42.654;23.296;2023-05-10T12:30:22;9.67;;;8.23;;
6023;SDS011;3040;42.654;23.296;2023-05-10T12:32:51;9.50;;;8.97;;
6023;SDS011;3040;42.654;23.296;2023-05-10T12:35:18;8.13;;;7.73;;
6023;SDS011;3040;42.654;23.296;2023-05-10T12:37:47;8.97;;;8.47;;
6023;SDS011;3040;42.654;23.296;2023-05-10T12:40:14;9.90;;;9.17;;
6023;SDS011;3040;42.654;23.296;2023-05-10T12:42:41;9.63;;;8.90;;
6023;SDS011;3040;42.654;23.296;2023-05-10T12:45:10;9.63;;;9.07;;
6023;SDS011;3040;42.654;23.296;2023-05-10T12:47:38;9.60;;;8.93;;
6023;SDS011;3040;42.654;23.296;2023-05-10T12:50:05;9.10;;;8.70;;
6023;SDS011;3040;42.654;23.296;2023-05-10T12:52:33;9.47;;;8.70;;
6023;SDS011;3040;42.654;23.296;2023-05-10T12:55:00;9.43;;;8.53;;
6023;SDS011;3040;42.654;23.296;2023-05-10T12:57:28;8.97;;;8.47;;
6023;SDS011;3040;42.654;23.296;2023-05-10T12:59:55;9.07;;;8.50;;
6023;SDS011;3040;42.654;23.296;2023-05-10T13:02:22;9.70;;;9.17;;
6023;SDS011;3040;42.654;23.296;2023-05-10T13:04:51;9.70;;;9.20;;
6023;SDS011;3040;42.654;23.296;2023-05-10T13:07:18;9.23;;;8.47;;
6023;SDS011;3040;42.654;23.296;2023-05-10T13:09:45;10.00;;;9.20;;
6023;SDS011;3040;42.654;23.296;2023-05-10T13:12:13;9.73;;;9.03;;
6023;SDS011;3040;42.654;23.296;2023-05-10T13:14:41;9.67;;;8.77;;
6023;SDS011;3040;42.654;23.296;2023-05-10T13:17:07;8.63;;;8.00;;
6023;SDS011;3040;42.654;23.296;2023-05-10T13:19:35;9.80;;;9.03;;
6023;SDS011;3040;42.654;23.296;2023-05-10T13:22:03;10.03;;;9.07;;
6023;SDS011;3040;42.654;23.296;2023-05-10T13:24:30;8.77;;;8.33;;
6023;SDS011;3040;42.654;23.296;2023-05-10T13:26:57;9.50;;;8.80;;
6023;SDS011;3040;42.654;23.296;2023-05-10T13:29:24;9.33;;;8.63;;
6023;SDS011;3040;42.654;23.296;2023-05-10T13:31:51;11.20;;;9.00;;
6023;SDS011;3040;42.654;23.296;2023-05-10T13:34:18;9.40;;;8.60;;
6023;SDS011;3040;42.654;23.296;2023-05-10T13:36:46;8.93;;;8.33;;
6023;SDS011;3040;42.654;23.296;2023-05-10T13:39:15;10.27;;;9.53;;
6023;SDS011;3040;42.654;23.296;2023-05-10T13:41:42;8.87;;;8.33;;
6023;SDS011;3040;42.654;23.296;2023-05-10T13:44:09;9.33;;;8.67;;
6023;SDS011;3040;42.654;23.296;2023-05-10T13:46:38;8.63;;;8.03;;
6023;SDS011;3040;42.654;23.296;2023-05-10T13:49:05;9.63;;;8.87;;
6023;SDS011;3040;42.654;23.296;2023-05-10T13:51:31;9.00;;;8.40;;
6023;SDS011;3040;42.654;23.296;2023-05-10T13:53:59;9.57;;;8.67;;
6023;SDS011;3040;42.654;23.296;2023-05-10T13:56:27;9.67;;;8.60;;
6023;SDS011;3040;42.654;23.296;2023-05-10T13:58:55;9.70;;;9.00;;
6023;SDS011;3040;42.654;23.296;2023-05-10T14:01:22;9.67;;;9.17;;
6023;SDS011;3040;42.654;23.296;2023-05-10T14:03:49;10.07;;;9.47;;
6023;SDS011;3040;42.654;23.296;2023-05-10T14:06:16;9.20;;;8.47;;
6023;SDS011;3040;42.654;23.296;2023-05-10T14:08:43;9.87;;;8.70;;
6023;SDS011;3040;42.654;23.296;2023-05-10T14:11:10;11.93;;;9.07;;
6023;SDS011;3040;42.654;23.296;2023-05-10T14:13:39;9.43;;;8.53;;
6023;SDS011;3040;42.654;23.296;2023-05-10T14:16:07;9.27;;;8.67;;
6023;SDS011;3040;42.654;23.296;2023-05-10T14:18:34;9.90;;;8.93;;
6023;SDS011;3040;42.654;23.296;2023-05-10T14:21:01;9.83;;;8.90;;
6023;SDS011;3040;42.654;23.296;2023-05-10T14:23:28;10.57;;;9.77;;
6023;SDS011;3040;42.654;23.296;2023-05-10T14:25:55;10.30;;;9.03;;
6023;SDS011;3040;42.654;23.296;2023-05-10T14:28:22;9.20;;;8.70;;
6023;SDS011;3040;42.654;23.296;2023-05-10T14:30:51;8.37;;;7.97;;
6023;SDS011;3040;42.654;23.296;2023-05-10T14:33:18;9.20;;;8.60;;
6023;SDS011;3040;42.654;23.296;2023-05-10T14:35:45;8.77;;;8.07;;
6023;SDS011;3040;42.654;23.296;2023-05-10T14:38:12;9.37;;;8.60;;
6023;SDS011;3040;42.654;23.296;2023-05-10T14:40:40;10.07;;;9.30;;
6023;SDS011;3040;42.654;23.296;2023-05-10T14:43:06;9.03;;;8.13;;
6023;SDS011;3040;42.654;23.296;2023-05-10T14:45:33;8.87;;;8.17;;
6023;SDS011;3040;42.654;23.296;2023-05-10T14:48:02;8.67;;;8.10;;
6023;SDS011;3040;42.654;23.296;2023-05-10T14:50:29;10.03;;;9.13;;
6023;SDS011;3040;42.654;23.296;2023-05-10T14:52:56;10.40;;;8.53;;
6023;SDS011;3040;42.654;23.296;2023-05-10T14:55:23;9.17;;;8.57;;
6023;SDS011;3040;42.654;23.296;2023-05-10T14:57:50;9.27;;;8.70;;
6023;SDS011;3040;42.654;23.296;2023-05-10T15:00:17;9.30;;;8.70;;
6023;SDS011;3040;42.654;23.296;2023-05-10T15:02:44;9.63;;;8.83;;
6023;SDS011;3040;42.654;23.296;2023-05-10T15:05:13;8.77;;;8.27;;
6023;SDS011;3040;42.654;23.296;2023-05-10T15:07:40;10.20;;;8.73;;
6023;SDS011;3040;42.654;23.296;2023-05-10T15:10:08;8.30;;;7.87;;
6023;SDS011;3040;42.654;23.296;2023-05-10T15:12:35;9.63;;;8.73;;
6023;SDS011;3040;42.654;23.296;2023-05-10T15:15:02;8.53;;;7.83;;